sensor_id;sensor_type;location;lat;lon;timestamp;temperature;humidity
12477;DHT22;6303;51.504;6.300;2023-09-30T00:00:00;25.40;84.40
12477;DHT22;6303;51.504;6.300;2023-09-30T00:02:36;25.40;84.90
12477;DHT22;6303;51.504;6.300;2023-09-30T00:05:04;25.40;84.60
12477;DHT22;6303;51.504;6.300;2023-09-30T00:07:31;25.40;84.30
12477;DHT22;6303;51.504;6.300;2023-09-30T00:09:59;25.40;84.10
12477;DHT22;6303;51.504;6.300;2023-09-30T00:12:27;25.40;84.30
12477;DHT22;6303;51.504;6.300;2023-09-30T00:14:54;24.90;84.10
12477;DHT22;6303;51.504;6.300;2023-09-30T00:17:21;25.40;84.60
12477;DHT22;6303;51.504;6.300;2023-09-30T00:19:48;25.40;85.10
12477;DHT22;6303;51.504;6.300;2023-09-30T00:22:15;25.40;84.60
12477;DHT22;6303;51.504;6.300;2023-09-30T00:24:43;25.40;84.80
12477;DHT22;6303;51.504;6.300;2023-09-30T00:27:11;25.40;84.80
12477;DHT22;6303;51.504;6.300;2023-09-30T00:29:38;25.40;85.10
12477;DHT22;6303;51.504;6.300;2023-09-30T00:32:05;25.40;85.00
12477;DHT22;6303;51.504;6.300;2023-09-30T00:34:33;25.40;85.10
12477;DHT22;6303;51.504;6.300;2023-09-30T00:37:01;25.00;84.60
12477;DHT22;6303;51.504;6.300;2023-09-30T00:39:28;25.40;85.00
12477;DHT22;6303;51.504;6.300;2023-09-30T00:41:56;25.40;84.80
12477;DHT22;6303;51.504;6.300;2023-09-30T00:44:26;25.40;84.50
12477;DHT22;6303;51.504;6.300;2023-09-30T00:46:54;25.40;84.50
12477;DHT22;6303;51.504;6.300;2023-09-30T00:49:22;25.40;84.60
12477;DHT22;6303;51.504;6.300;2023-09-30T00:51:50;25.40;84.40
12477;DHT22;6303;51.504;6.300;2023-09-30T00:54:19;25.40;84.10
12477;DHT22;6303;51.504;6.300;2023-09-30T00:56:48;25.40;84.50
12477;DHT22;6303;51.504;6.300;2023-09-30T00:59:17;25.30;83.50
12477;DHT22;6303;51.504;6.300;2023-09-30T01:01:50;25.40;83.80
12477;DHT22;6303;51.504;6.300;2023-09-30T01:04:18;25.40;83.50
12477;DHT22;6303;51.504;6.300;2023-09-30T01:06:46;25.40;84.00
12477;DHT22;6303;51.504;6.300;2023-09-30T01:09:13;25.40;84.30
12477;DHT22;6303;51.504;6.300;2023-09-30T01:11:40;25.40;84.60
12477;DHT22;6303;51.504;6.300;2023-09-30T01:14:26;25.40;84.60
12477;DHT22;6303;51.504;6.300;2023-09-30T01:16:56;25.40;84.40
12477;DHT22;6303;51.504;6.300;2023-09-30T01:19:24;25.30;84.10
12477;DHT22;6303;51.504;6.300;2023-09-30T01:21:53;25.40;84.20
12477;DHT22;6303;51.504;6.300;2023-09-30T01:24:24;25.40;84.00
12477;DHT22;6303;51.504;6.300;2023-09-30T01:26:51;25.40;84.00
12477;DHT22;6303;51.504;6.300;2023-09-30T01:29:19;25.40;84.10
12477;DHT22;6303;51.504;6.300;2023-09-30T01:31:48;25.40;84.40
12477;DHT22;6303;51.504;6.300;2023-09-30T01:34:16;25.40;85.00
12477;DHT22;6303;51.504;6.300;2023-09-30T01:36:43;25.30;85.10
12477;DHT22;6303;51.504;6.300;2023-09-30T01:39:12;25.30;85.10
12477;DHT22;6303;51.504;6.300;2023-09-30T01:41:40;25.30;84.70
12477;DHT22;6303;51.504;6.300;2023-09-30T01:44:07;25.30;84.90
12477;DHT22;6303;51.504;6.300;2023-09-30T01:46:36;25.40;85.30
12477;DHT22;6303;51.504;6.300;2023-09-30T01:49:03;25.30;85.30
12477;DHT22;6303;51.504;6.300;2023-09-30T01:51:30;25.40;85.60
12477;DHT22;6303;51.504;6.300;2023-09-30T01:53:57;25.40;85.10
12477;DHT22;6303;51.504;6.300;2023-09-30T01:56:26;25.30;84.80
12477;DHT22;6303;51.504;6.300;2023-09-30T01:58:53;25.30;84.40
12477;DHT22;6303;51.504;6.300;2023-09-30T02:01:20;25.30;84.40
12477;DHT22;6303;51.504;6.300;2023-09-30T02:03:48;25.30;84.90
12477;DHT22;6303;51.504;6.300;2023-09-30T02:06:16;25.30;85.20
12477;DHT22;6303;51.504;6.300;2023-09-30T02:08:44;25.30;84.70
12477;DHT22;6303;51.504;6.300;2023-09-30T02:11:12;25.30;84.10
12477;DHT22;6303;51.504;6.300;2023-09-30T02:13:41;25.30;83.50
12477;DHT22;6303;51.504;6.300;2023-09-30T02:16:11;25.30;84.10
12477;DHT22;6303;51.504;6.300;2023-09-30T02:18:39;25.30;84.20
12477;DHT22;6303;51.504;6.300;2023-09-30T02:21:07;25.30;84.10
12477;DHT22;6303;51.504;6.300;2023-09-30T02:23:34;25.30;84.10
12477;DHT22;6303;51.504;6.300;2023-09-30T02:26:01;25.30;84.10
12477;DHT22;6303;51.504;6.300;2023-09-30T02:28:29;25.30;84.00
12477;DHT22;6303;51.504;6.300;2023-09-30T02:30:59;25.20;83.90
12477;DHT22;6303;51.504;6.300;2023-09-30T02:33:26;25.20;83.70
12477;DHT22;6303;51.504;6.300;2023-09-30T02:35:53;25.20;84.00
12477;DHT22;6303;51.504;6.300;2023-09-30T02:38:21;25.20;84.20
12477;DHT22;6303;51.504;6.300;2023-09-30T02:40:48;25.20;84.70
12477;DHT22;6303;51.504;6.300;2023-09-30T02:43:17;25.20;84.40
12477;DHT22;6303;51.504;6.300;2023-09-30T02:45:44;25.20;84.40
12477;DHT22;6303;51.504;6.300;2023-09-30T02:48:13;25.20;85.10
12477;DHT22;6303;51.504;6.300;2023-09-30T02:50:42;25.20;85.50
12477;DHT22;6303;51.504;6.300;2023-09-30T02:53:11;25.20;85.20
12477;DHT22;6303;51.504;6.300;2023-09-30T02:55:38;25.20;85.00
12477;DHT22;6303;51.504;6.300;2023-09-30T02:58:06;25.90;85.10
12477;DHT22;6303;51.504;6.300;2023-09-30T03:00:34;25.20;83.90
12477;DHT22;6303;51.504;6.300;2023-09-30T03:03:03;25.20;83.70
12477;DHT22;6303;51.504;6.300;2023-09-30T03:05:31;25.20;84.20
12477;DHT22;6303;51.504;6.300;2023-09-30T03:07:59;25.20;84.60
12477;DHT22;6303;51.504;6.300;2023-09-30T03:10:26;25.20;84.50
12477;DHT22;6303;51.504;6.300;2023-09-30T03:12:54;25.10;84.50
12477;DHT22;6303;51.504;6.300;2023-09-30T03:15:22;25.20;84.70
12477;DHT22;6303;51.504;6.300;2023-09-30T03:17:49;25.10;84.20
12477;DHT22;6303;51.504;6.300;2023-09-30T03:20:16;25.20;84.20
12477;DHT22;6303;51.504;6.300;2023-09-30T03:22:47;25.10;83.90
12477;DHT22;6303;51.504;6.300;2023-09-30T03:25:16;25.20;84.20
12477;DHT22;6303;51.504;6.300;2023-09-30T03:27:44;25.10;84.30
12477;DHT22;6303;51.504;6.300;2023-09-30T03:30:13;25.10;83.70
12477;DHT22;6303;51.504;6.300;2023-09-30T03:32:41;25.10;83.30
12477;DHT22;6303;51.504;6.300;2023-09-30T03:35:09;25.10;83.20
12477;DHT22;6303;51.504;6.300;2023-09-30T03:37:40;25.50;83.60
12477;DHT22;6303;51.504;6.300;2023-09-30T03:40:10;25.10;83.10
12477;DHT22;6303;51.504;6.300;2023-09-30T03:42:40;25.10;82.90
12477;DHT22;6303;51.504;6.300;2023-09-30T03:45:08;25.10;82.90
12477;DHT22;6303;51.504;6.300;2023-09-30T03:47:36;25.10;83.70
12477;DHT22;6303;51.504;6.300;2023-09-30T03:50:04;25.10;83.60
12477;DHT22;6303;51.504;6.300;2023-09-30T03:52:33;25.10;83.80
12477;DHT22;6303;51.504;6.300;2023-09-30T03:55:01;25.10;84.30
12477;DHT22;6303;51.504;6.300;2023-09-30T03:57:32;25.10;84.60
12477;DHT22;6303;51.504;6.300;2023-09-30T04:00:00;25.80;84.80
12477;DHT22;6303;51.504;6.300;2023-09-30T04:02:38;25.00;84.40
12477;DHT22;6303;51.504;6.300;2023-09-30T04:05:08;25.10;84.10
12477;DHT22;6303;51.504;6.300;2023-09-30T04:07:37;25.10;84.00
12477;DHT22;6303;51.504;6.300;2023-09-30T04:10:05;25.10;84.20
12477;DHT22;6303;51.504;6.300;2023-09-30T04:12:33;25.10;84.50
12477;DHT22;6303;51.504;6.300;2023-09-30T04:15:00;25.10;84.50
12477;DHT22;6303;51.504;6.300;2023-09-30T04:17:30;25.10;84.60
12477;DHT22;6303;51.504;6.300;2023-09-30T04:19:58;25.00;84.50
12477;DHT22;6303;51.504;6.300;2023-09-30T04:22:25;25.10;84.70
12477;DHT22;6303;51.504;6.300;2023-09-30T04:24:54;25.10;85.20
12477;DHT22;6303;51.504;6.300;2023-09-30T04:27:21;25.00;85.70
12477;DHT22;6303;51.504;6.300;2023-09-30T04:29:49;25.10;86.00
12477;DHT22;6303;51.504;6.300;2023-09-30T04:32:16;25.00;86.00
12477;DHT22;6303;51.504;6.300;2023-09-30T04:34:45;25.00;85.60
12477;DHT22;6303;51.504;6.300;2023-09-30T04:37:12;25.00;85.00
12477;DHT22;6303;51.504;6.300;2023-09-30T04:39:40;25.00;84.00
12477;DHT22;6303;51.504;6.300;2023-09-30T04:42:07;25.00;84.20
12477;DHT22;6303;51.504;6.300;2023-09-30T04:44:36;25.00;84.20
12477;DHT22;6303;51.504;6.300;2023-09-30T04:47:06;25.00;84.20
12477;DHT22;6303;51.504;6.300;2023-09-30T04:49:33;25.00;85.10
12477;DHT22;6303;51.504;6.300;2023-09-30T04:52:01;25.00;85.20
12477;DHT22;6303;51.504;6.300;2023-09-30T04:54:28;24.30;84.80
12477;DHT22;6303;51.504;6.300;2023-09-30T04:56:56;25.00;84.70
12477;DHT22;6303;51.504;6.300;2023-09-30T04:59:23;25.00;84.50
12477;DHT22;6303;51.504;6.300;2023-09-30T05:01:51;25.00;84.60
12477;DHT22;6303;51.504;6.300;2023-09-30T05:04:20;25.00;84.60
12477;DHT22;6303;51.504;6.300;2023-09-30T05:06:49;25.00;84.60
12477;DHT22;6303;51.504;6.300;2023-09-30T05:09:17;25.00;84.80
12477;DHT22;6303;51.504;6.300;2023-09-30T05:11:44;25.00;84.70
12477;DHT22;6303;51.504;6.300;2023-09-30T05:14:11;25.00;84.80
12477;DHT22;6303;51.504;6.300;2023-09-30T05:16:39;25.00;84.70
12477;DHT22;6303;51.504;6.300;2023-09-30T05:19:06;25.00;84.70
12477;DHT22;6303;51.504;6.300;2023-09-30T05:21:34;25.00;84.50
12477;DHT22;6303;51.504;6.300;2023-09-30T05:24:03;25.00;84.60
12477;DHT22;6303;51.504;6.300;2023-09-30T05:26:31;25.00;85.00
12477;DHT22;6303;51.504;6.300;2023-09-30T05:28:58;24.90;85.00
12477;DHT22;6303;51.504;6.300;2023-09-30T05:31:25;24.90;84.80
12477;DHT22;6303;51.504;6.300;2023-09-30T05:33:53;25.00;84.80
12477;DHT22;6303;51.504;6.300;2023-09-30T05:36:21;25.10;84.90
12477;DHT22;6303;51.504;6.300;2023-09-30T05:38:49;24.90;84.80
12477;DHT22;6303;51.504;6.300;2023-09-30T05:41:16;24.90;84.50
12477;DHT22;6303;51.504;6.300;2023-09-30T05:43:44;24.90;84.50
12477;DHT22;6303;51.504;6.300;2023-09-30T05:46:11;24.90;84.60
12477;DHT22;6303;51.504;6.300;2023-09-30T05:48:38;24.90;85.70
12477;DHT22;6303;51.504;6.300;2023-09-30T05:51:06;24.90;84.70
12477;DHT22;6303;51.504;6.300;2023-09-30T05:53:33;24.90;83.60
12477;DHT22;6303;51.504;6.300;2023-09-30T05:56:03;24.90;82.00
12477;DHT22;6303;51.504;6.300;2023-09-30T05:58:30;24.90;80.40
12477;DHT22;6303;51.504;6.300;2023-09-30T06:00:57;24.90;79.00
12477;DHT22;6303;51.504;6.300;2023-09-30T06:03:26;24.90;77.80
12477;DHT22;6303;51.504;6.300;2023-09-30T06:05:55;24.90;76.60
12477;DHT22;6303;51.504;6.300;2023-09-30T06:08:22;24.90;75.80
12477;DHT22;6303;51.504;6.300;2023-09-30T06:10:49;25.00;75.00
12477;DHT22;6303;51.504;6.300;2023-09-30T06:13:18;25.00;74.30
12477;DHT22;6303;51.504;6.300;2023-09-30T06:15:46;25.00;74.00
12477;DHT22;6303;51.504;6.300;2023-09-30T06:18:16;25.00;73.00
12477;DHT22;6303;51.504;6.300;2023-09-30T06:20:43;25.10;72.20
12477;DHT22;6303;51.504;6.300;2023-09-30T06:23:10;25.10;71.20
12477;DHT22;6303;51.504;6.300;2023-09-30T06:25:37;25.20;70.50
12477;DHT22;6303;51.504;6.300;2023-09-30T06:28:05;25.20;69.80
12477;DHT22;6303;51.504;6.300;2023-09-30T06:30:35;25.30;69.40
12477;DHT22;6303;51.504;6.300;2023-09-30T06:33:03;25.40;69.00
12477;DHT22;6303;51.504;6.300;2023-09-30T06:35:31;25.40;68.70
12477;DHT22;6303;51.504;6.300;2023-09-30T06:38:03;25.40;68.60
12477;DHT22;6303;51.504;6.300;2023-09-30T06:40:32;25.40;68.50
12477;DHT22;6303;51.504;6.300;2023-09-30T06:42:59;25.50;67.70
12477;DHT22;6303;51.504;6.300;2023-09-30T06:45:26;25.60;67.30
12477;DHT22;6303;51.504;6.300;2023-09-30T06:47:55;25.60;67.20
12477;DHT22;6303;51.504;6.300;2023-09-30T06:50:23;25.70;67.30
12477;DHT22;6303;51.504;6.300;2023-09-30T06:52:50;25.70;66.30
12477;DHT22;6303;51.504;6.300;2023-09-30T06:55:17;25.80;66.00
12477;DHT22;6303;51.504;6.300;2023-09-30T06:57:45;25.80;65.80
12477;DHT22;6303;51.504;6.300;2023-09-30T07:00:13;25.90;65.70
12477;DHT22;6303;51.504;6.300;2023-09-30T07:02:42;25.90;65.50
12477;DHT22;6303;51.504;6.300;2023-09-30T07:05:12;26.00;65.80
12477;DHT22;6303;51.504;6.300;2023-09-30T07:07:40;26.00;65.70
12477;DHT22;6303;51.504;6.300;2023-09-30T07:10:09;26.00;65.70
12477;DHT22;6303;51.504;6.300;2023-09-30T07:12:37;26.10;65.50
12477;DHT22;6303;51.504;6.300;2023-09-30T07:15:06;26.10;64.90
12477;DHT22;6303;51.504;6.300;2023-09-30T07:17:34;26.20;64.60
12477;DHT22;6303;51.504;6.300;2023-09-30T07:20:01;25.40;63.80
12477;DHT22;6303;51.504;6.300;2023-09-30T07:22:29;26.30;64.80
12477;DHT22;6303;51.504;6.300;2023-09-30T07:24:57;26.30;64.80
12477;DHT22;6303;51.504;6.300;2023-09-30T07:27:24;26.30;64.60
12477;DHT22;6303;51.504;6.300;2023-09-30T07:29:51;26.40;64.30
12477;DHT22;6303;51.504;6.300;2023-09-30T07:32:18;26.40;63.80
12477;DHT22;6303;51.504;6.300;2023-09-30T07:34:48;26.40;63.60
12477;DHT22;6303;51.504;6.300;2023-09-30T07:37:15;26.40;63.30
12477;DHT22;6303;51.504;6.300;2023-09-30T07:39:44;26.50;63.40
12477;DHT22;6303;51.504;6.300;2023-09-30T07:42:12;26.50;62.80
12477;DHT22;6303;51.504;6.300;2023-09-30T07:44:39;26.50;62.60
12477;DHT22;6303;51.504;6.300;2023-09-30T07:47:06;26.50;62.90
12477;DHT22;6303;51.504;6.300;2023-09-30T07:49:34;26.60;62.80
12477;DHT22;6303;51.504;6.300;2023-09-30T07:52:02;26.60;62.50
12477;DHT22;6303;51.504;6.300;2023-09-30T07:54:29;26.60;62.80
12477;DHT22;6303;51.504;6.300;2023-09-30T07:56:58;27.00;63.10
12477;DHT22;6303;51.504;6.300;2023-09-30T07:59:25;26.70;62.90
12477;DHT22;6303;51.504;6.300;2023-09-30T08:01:52;26.80;63.10
12477;DHT22;6303;51.504;6.300;2023-09-30T08:04:19;26.80;63.40
12477;DHT22;6303;51.504;6.300;2023-09-30T08:06:47;26.80;63.20
12477;DHT22;6303;51.504;6.300;2023-09-30T08:09:14;26.80;63.20
12477;DHT22;6303;51.504;6.300;2023-09-30T08:11:41;26.90;63.20
12477;DHT22;6303;51.504;6.300;2023-09-30T08:14:10;26.90;63.20
12477;DHT22;6303;51.504;6.300;2023-09-30T08:16:37;27.00;63.10
12477;DHT22;6303;51.504;6.300;2023-09-30T08:19:04;27.00;62.90
12477;DHT22;6303;51.504;6.300;2023-09-30T08:21:33;25.60;61.20
12477;DHT22;6303;51.504;6.300;2023-09-30T08:24:00;27.10;62.90
12477;DHT22;6303;51.504;6.300;2023-09-30T08:26:27;27.10;63.10
12477;DHT22;6303;51.504;6.300;2023-09-30T08:28:54;27.20;62.80
12477;DHT22;6303;51.504;6.300;2023-09-30T08:31:23;27.20;62.60
12477;DHT22;6303;51.504;6.300;2023-09-30T08:33:50;27.20;62.30
12477;DHT22;6303;51.504;6.300;2023-09-30T08:36:18;27.30;62.30
12477;DHT22;6303;51.504;6.300;2023-09-30T08:38:46;27.30;62.30
12477;DHT22;6303;51.504;6.300;2023-09-30T08:41:26;27.30;62.10
12477;DHT22;6303;51.504;6.300;2023-09-30T08:44:00;27.30;61.80
12477;DHT22;6303;51.504;6.300;2023-09-30T08:46:31;27.30;61.90
12477;DHT22;6303;51.504;6.300;2023-09-30T08:49:01;27.30;61.90
12477;DHT22;6303;51.504;6.300;2023-09-30T08:51:29;27.30;61.40
12477;DHT22;6303;51.504;6.300;2023-09-30T08:53:57;27.30;61.20
12477;DHT22;6303;51.504;6.300;2023-09-30T08:56:26;27.30;61.00
12477;DHT22;6303;51.504;6.300;2023-09-30T08:58:57;27.40;61.00
12477;DHT22;6303;51.504;6.300;2023-09-30T09:01:25;27.40;61.00
12477;DHT22;6303;51.504;6.300;2023-09-30T09:03:53;27.40;61.60
12477;DHT22;6303;51.504;6.300;2023-09-30T09:06:21;27.40;62.20
12477;DHT22;6303;51.504;6.300;2023-09-30T09:08:49;27.40;62.40
12477;DHT22;6303;51.504;6.300;2023-09-30T09:11:16;27.50;62.60
12477;DHT22;6303;51.504;6.300;2023-09-30T09:13:47;27.50;62.60
12477;DHT22;6303;51.504;6.300;2023-09-30T09:16:16;27.60;62.80
12477;DHT22;6303;51.504;6.300;2023-09-30T09:18:44;27.60;62.80
12477;DHT22;6303;51.504;6.300;2023-09-30T09:21:16;27.60;62.80
12477;DHT22;6303;51.504;6.300;2023-09-30T09:23:46;27.70;62.90
12477;DHT22;6303;51.504;6.300;2023-09-30T09:26:26;27.70;63.00
12477;DHT22;6303;51.504;6.300;2023-09-30T09:28:58;27.70;63.10
12477;DHT22;6303;51.504;6.300;2023-09-30T09:31:28;27.80;63.00
12477;DHT22;6303;51.504;6.300;2023-09-30T09:33:58;27.80;62.90
12477;DHT22;6303;51.504;6.300;2023-09-30T09:36:41;27.80;63.00
12477;DHT22;6303;51.504;6.300;2023-09-30T09:39:12;27.90;63.00
12477;DHT22;6303;51.504;6.300;2023-09-30T09:41:50;27.90;63.00
12477;DHT22;6303;51.504;6.300;2023-09-30T09:44:23;27.90;63.00
12477;DHT22;6303;51.504;6.300;2023-09-30T09:46:53;27.90;62.90
12477;DHT22;6303;51.504;6.300;2023-09-30T09:49:21;28.00;63.10
12477;DHT22;6303;51.504;6.300;2023-09-30T09:51:50;28.00;63.20
12477;DHT22;6303;51.504;6.300;2023-09-30T09:54:19;28.00;63.50
12477;DHT22;6303;51.504;6.300;2023-09-30T09:56:49;27.90;63.50
12477;DHT22;6303;51.504;6.300;2023-09-30T09:59:17;27.90;63.90
12477;DHT22;6303;51.504;6.300;2023-09-30T10:01:46;27.80;63.90
12477;DHT22;6303;51.504;6.300;2023-09-30T10:04:15;27.80;64.30
12477;DHT22;6303;51.504;6.300;2023-09-30T10:06:46;27.70;64.30
12477;DHT22;6303;51.504;6.300;2023-09-30T10:09:19;27.60;64.60
12477;DHT22;6303;51.504;6.300;2023-09-30T10:11:47;27.70;64.50
12477;DHT22;6303;51.504;6.300;2023-09-30T10:14:30;27.70;64.50
12477;DHT22;6303;51.504;6.300;2023-09-30T10:16:58;27.80;64.40
12477;DHT22;6303;51.504;6.300;2023-09-30T10:19:25;27.80;64.30
12477;DHT22;6303;51.504;6.300;2023-09-30T10:22:21;27.80;64.30
12477;DHT22;6303;51.504;6.300;2023-09-30T10:24:51;27.70;64.40
12477;DHT22;6303;51.504;6.300;2023-09-30T10:27:34;27.70;64.60
12477;DHT22;6303;51.504;6.300;2023-09-30T10:30:14;27.70;64.70
12477;DHT22;6303;51.504;6.300;2023-09-30T10:33:12;27.70;64.70
12477;DHT22;6303;51.504;6.300;2023-09-30T10:35:47;27.60;64.80
12477;DHT22;6303;51.504;6.300;2023-09-30T10:38:41;27.60;64.90
12477;DHT22;6303;51.504;6.300;2023-09-30T10:41:10;27.60;65.00
12477;DHT22;6303;51.504;6.300;2023-09-30T10:43:40;27.60;65.00
12477;DHT22;6303;51.504;6.300;2023-09-30T10:46:32;27.50;65.00
12477;DHT22;6303;51.504;6.300;2023-09-30T10:49:32;27.60;65.00
12477;DHT22;6303;51.504;6.300;2023-09-30T10:52:00;27.60;64.90
12477;DHT22;6303;51.504;6.300;2023-09-30T10:54:29;27.60;64.10
12477;DHT22;6303;51.504;6.300;2023-09-30T10:56:58;27.70;64.30
12477;DHT22;6303;51.504;6.300;2023-09-30T10:59:27;27.80;64.00
12477;DHT22;6303;51.504;6.300;2023-09-30T11:01:56;27.80;64.00
12477;DHT22;6303;51.504;6.300;2023-09-30T11:04:23;27.90;64.00
12477;DHT22;6303;51.504;6.300;2023-09-30T11:06:52;28.00;63.90
12477;DHT22;6303;51.504;6.300;2023-09-30T11:09:21;28.00;63.50
12477;DHT22;6303;51.504;6.300;2023-09-30T11:11:50;28.00;63.40
12477;DHT22;6303;51.504;6.300;2023-09-30T11:14:20;28.00;63.30
12477;DHT22;6303;51.504;6.300;2023-09-30T11:16:49;28.10;63.10
12477;DHT22;6303;51.504;6.300;2023-09-30T11:19:17;28.10;62.80
12477;DHT22;6303;51.504;6.300;2023-09-30T11:21:48;28.10;63.50
12477;DHT22;6303;51.504;6.300;2023-09-30T11:24:16;28.10;63.00
12477;DHT22;6303;51.504;6.300;2023-09-30T11:26:43;28.00;63.00
12477;DHT22;6303;51.504;6.300;2023-09-30T11:29:12;28.00;63.10
12477;DHT22;6303;51.504;6.300;2023-09-30T11:31:44;27.90;63.10
12477;DHT22;6303;51.504;6.300;2023-09-30T11:34:13;27.90;63.50
12477;DHT22;6303;51.504;6.300;2023-09-30T11:36:47;27.80;63.50
12477;DHT22;6303;51.504;6.300;2023-09-30T11:39:22;27.80;63.90
12477;DHT22;6303;51.504;6.300;2023-09-30T11:41:50;27.60;64.00
12477;DHT22;6303;51.504;6.300;2023-09-30T11:44:18;27.60;63.60
12477;DHT22;6303;51.504;6.300;2023-09-30T11:46:51;27.60;64.10
12477;DHT22;6303;51.504;6.300;2023-09-30T11:49:28;27.60;63.90
12477;DHT22;6303;51.504;6.300;2023-09-30T11:51:56;27.70;64.00
12477;DHT22;6303;51.504;6.300;2023-09-30T11:54:29;27.80;63.70
12477;DHT22;6303;51.504;6.300;2023-09-30T11:56:56;27.80;63.60
12477;DHT22;6303;51.504;6.300;2023-09-30T11:59:24;27.80;63.60
12477;DHT22;6303;51.504;6.300;2023-09-30T12:01:53;27.80;63.60
12477;DHT22;6303;51.504;6.300;2023-09-30T12:04:20;27.80;63.50
12477;DHT22;6303;51.504;6.300;2023-09-30T12:06:48;27.90;63.60
12477;DHT22;6303;51.504;6.300;2023-09-30T12:09:15;27.40;63.20
12477;DHT22;6303;51.504;6.300;2023-09-30T12:11:48;27.90;63.50
12477;DHT22;6303;51.504;6.300;2023-09-30T12:14:15;27.90;63.50
12477;DHT22;6303;51.504;6.300;2023-09-30T12:16:42;27.90;63.80
12477;DHT22;6303;51.504;6.300;2023-09-30T12:19:12;27.90;63.70
12477;DHT22;6303;51.504;6.300;2023-09-30T12:21:41;27.90;63.60
12477;DHT22;6303;51.504;6.300;2023-09-30T12:24:09;27.80;63.10
12477;DHT22;6303;51.504;6.300;2023-09-30T12:26:39;27.90;62.80
12477;DHT22;6303;51.504;6.300;2023-09-30T12:29:07;27.80;62.80
12477;DHT22;6303;51.504;6.300;2023-09-30T12:31:35;27.80;63.10
12477;DHT22;6303;51.504;6.300;2023-09-30T12:34:02;27.80;63.20
12477;DHT22;6303;51.504;6.300;2023-09-30T12:36:31;27.80;63.30
12477;DHT22;6303;51.504;6.300;2023-09-30T12:38:59;27.80;63.50
12477;DHT22;6303;51.504;6.300;2023-09-30T12:41:26;27.80;63.50
12477;DHT22;6303;51.504;6.300;2023-09-30T12:43:55;27.70;63.40
12477;DHT22;6303;51.504;6.300;2023-09-30T12:46:23;28.20;63.90
12477;DHT22;6303;51.504;6.300;2023-09-30T12:48:50;27.70;63.50
12477;DHT22;6303;51.504;6.300;2023-09-30T12:51:17;27.70;63.30
12477;DHT22;6303;51.504;6.300;2023-09-30T12:53:46;27.70;63.20
12477;DHT22;6303;51.504;6.300;2023-09-30T12:56:13;27.80;63.10
12477;DHT22;6303;51.504;6.300;2023-09-30T12:58:41;27.80;63.90
12477;DHT22;6303;51.504;6.300;2023-09-30T13:01:08;27.80;63.60
12477;DHT22;6303;51.504;6.300;2023-09-30T13:03:36;27.80;63.70
12477;DHT22;6303;51.504;6.300;2023-09-30T13:06:03;27.70;63.80
12477;DHT22;6303;51.504;6.300;2023-09-30T13:08:30;27.70;63.80
12477;DHT22;6303;51.504;6.300;2023-09-30T13:11:01;27.70;63.80
12477;DHT22;6303;51.504;6.300;2023-09-30T13:13:29;27.70;63.90
12477;DHT22;6303;51.504;6.300;2023-09-30T13:15:56;27.70;60.90
12477;DHT22;6303;51.504;6.300;2023-09-30T13:18:23;27.50;58.60
12477;DHT22;6303;51.504;6.300;2023-09-30T13:20:51;27.60;57.70
12477;DHT22;6303;51.504;6.300;2023-09-30T13:23:18;27.50;57.20
12477;DHT22;6303;51.504;6.300;2023-09-30T13:25:46;27.50;56.90
12477;DHT22;6303;51.504;6.300;2023-09-30T13:28:14;27.40;56.70
12477;DHT22;6303;51.504;6.300;2023-09-30T13:30:42;27.40;56.60
12477;DHT22;6303;51.504;6.300;2023-09-30T13:33:09;27.30;56.40
12477;DHT22;6303;51.504;6.300;2023-09-30T13:35:36;27.30;56.30
12477;DHT22;6303;51.504;6.300;2023-09-30T13:38:04;27.30;56.30
12477;DHT22;6303;51.504;6.300;2023-09-30T13:40:31;27.30;56.50
12477;DHT22;6303;51.504;6.300;2023-09-30T13:42:58;27.30;56.60
12477;DHT22;6303;51.504;6.300;2023-09-30T13:45:27;27.20;56.30
12477;DHT22;6303;51.504;6.300;2023-09-30T13:47:54;27.20;56.40
12477;DHT22;6303;51.504;6.300;2023-09-30T13:50:21;27.20;55.90
12477;DHT22;6303;51.504;6.300;2023-09-30T13:52:48;27.20;55.60
12477;DHT22;6303;51.504;6.300;2023-09-30T13:55:15;27.10;55.50
12477;DHT22;6303;51.504;6.300;2023-09-30T13:57:44;27.10;55.40
12477;DHT22;6303;51.504;6.300;2023-09-30T14:00:12;27.10;55.20
12477;DHT22;6303;51.504;6.300;2023-09-30T14:02:41;27.10;55.20
12477;DHT22;6303;51.504;6.300;2023-09-30T14:05:09;27.00;55.20
12477;DHT22;6303;51.504;6.300;2023-09-30T14:07:37;27.00;55.00
12477;DHT22;6303;51.504;6.300;2023-09-30T14:10:06;27.00;55.30
12477;DHT22;6303;51.504;6.300;2023-09-30T14:12:36;27.00;55.30
12477;DHT22;6303;51.504;6.300;2023-09-30T14:15:03;27.00;55.30
12477;DHT22;6303;51.504;6.300;2023-09-30T14:17:31;26.90;55.10
12477;DHT22;6303;51.504;6.300;2023-09-30T14:20:00;26.90;55.00
12477;DHT22;6303;51.504;6.300;2023-09-30T14:22:27;26.90;54.70
12477;DHT22;6303;51.504;6.300;2023-09-30T14:24:54;26.90;54.70
12477;DHT22;6303;51.504;6.300;2023-09-30T14:27:21;26.90;54.70
12477;DHT22;6303;51.504;6.300;2023-09-30T14:29:49;26.90;55.40
12477;DHT22;6303;51.504;6.300;2023-09-30T14:32:16;26.90;54.70
12477;DHT22;6303;51.504;6.300;2023-09-30T14:34:43;26.80;54.60
12477;DHT22;6303;51.504;6.300;2023-09-30T14:37:12;26.80;54.70
12477;DHT22;6303;51.504;6.300;2023-09-30T14:39:39;26.80;55.30
12477;DHT22;6303;51.504;6.300;2023-09-30T14:42:06;26.80;55.50
12477;DHT22;6303;51.504;6.300;2023-09-30T14:44:33;26.80;55.80
12477;DHT22;6303;51.504;6.300;2023-09-30T14:47:00;26.80;55.60
12477;DHT22;6303;51.504;6.300;2023-09-30T14:49:27;26.80;55.50
12477;DHT22;6303;51.504;6.300;2023-09-30T14:51:56;26.80;55.80
12477;DHT22;6303;51.504;6.300;2023-09-30T14:54:24;26.80;55.80
12477;DHT22;6303;51.504;6.300;2023-09-30T14:56:51;26.80;55.80
12477;DHT22;6303;51.504;6.300;2023-09-30T14:59:19;26.80;55.80
12477;DHT22;6303;51.504;6.300;2023-09-30T15:01:46;26.80;55.80
12477;DHT22;6303;51.504;6.300;2023-09-30T15:04:13;26.80;56.00
12477;DHT22;6303;51.504;6.300;2023-09-30T15:06:40;25.70;55.30
12477;DHT22;6303;51.504;6.300;2023-09-30T15:09:08;26.90;56.10
12477;DHT22;6303;51.504;6.300;2023-09-30T15:11:38;26.80;56.00
12477;DHT22;6303;51.504;6.300;2023-09-30T15:14:06;26.80;56.10
12477;DHT22;6303;51.504;6.300;2023-09-30T15:16:33;26.80;56.30
12477;DHT22;6303;51.504;6.300;2023-09-30T15:19:01;26.90;55.60
12477;DHT22;6303;51.504;6.300;2023-09-30T15:21:28;26.90;55.70
12477;DHT22;6303;51.504;6.300;2023-09-30T15:23:55;26.80;55.60
12477;DHT22;6303;51.504;6.300;2023-09-30T15:26:23;26.90;55.30
12477;DHT22;6303;51.504;6.300;2023-09-30T15:28:51;26.80;55.20
12477;DHT22;6303;51.504;6.300;2023-09-30T15:31:18;26.80;55.20
12477;DHT22;6303;51.504;6.300;2023-09-30T15:33:46;26.80;55.00
12477;DHT22;6303;51.504;6.300;2023-09-30T15:36:14;26.80;55.30
12477;DHT22;6303;51.504;6.300;2023-09-30T15:38:43;26.70;55.70
12477;DHT22;6303;51.504;6.300;2023-09-30T15:41:12;26.70;55.90
12477;DHT22;6303;51.504;6.300;2023-09-30T15:43:39;26.80;56.10
12477;DHT22;6303;51.504;6.300;2023-09-30T15:46:09;26.80;56.30
12477;DHT22;6303;51.504;6.300;2023-09-30T15:48:36;26.80;56.40
12477;DHT22;6303;51.504;6.300;2023-09-30T15:51:03;26.80;56.60
12477;DHT22;6303;51.504;6.300;2023-09-30T15:53:31;26.80;56.80